sim
Sign-in with your pilot id or email,
or register
Callsign
Passwort

Schedule Details

Flight Number: DLH2412
Departure: Munich Airport (EDDM) at 05:35
Arrival: Stockholm Arlanda Airport (ESSA) at 07:50
Route: Lufthansa Passenger Schedule. Enter filed route here before submitting Pirep.

Weather Information
Getting current METAR information for EDDM 280820Z VRB01KT 9999 -RA FEW005 SCT045 07/06 Q1011 NOSIG
Getting current METAR information for ESSA 280820Z 03007KT 1000 R01L/P1500N R19R/P1500N R01R/1100U R19L/P1500N OVC002 11/11 Q1016 BECMG 1000 BR

Schedule Frequency

Route Map